BIENTÔT MET'MAP
version 2.0 !

Prévue avant fin octobre,
la nouvelle version sera
plus belle, plus complète
et hébergée sur un serveur
3 fois plus puissant...
et toujours gratuite !


Pas compatible ?
Essayez la version Mobile !

SE CONNECTER : | S'inscrire | Disclaimer | Découvrir Orbifly |
Code OACI :

TAF - EGPC Wick - 05 Apr 2020 13:21 UTC - Data Source NOAA   


- Altitude de l'aérodrome : 126 ft
- Code IATA : WIC
- Pas de NOTAMs connus.


EGPC - Wick

Dernier METAR connu : 2015/08/11 07:50 EGPC 110750Z AUTO 27007KT 9999 FEW014/// OVC019/// 12/10 Q1015
TAF TAF EGPC
Valide du 05 à 09h jusqu'au 05 à 18h UTC


050756Z 0509/0518 17015KT 9999 FEW040
TEMPO 0509/0516 17018G30KT
BECMG 0516/0518 17018G28KT
TEMPO 0516/0518 18023G38KT

Source NOAA
ATIS : +44 1955 607 596


MET'MAP, la Météo Aéronautique d'un coup d'oeil ! - Copyright ORBIFLY Décembre 2007

Développement & Programmation : Alexandra Zaïnal
Co-Développement : Marc-Olivier Méhu
Soutien technique & logistique : Manuel Goepfert
Conception & Financement : Baudouin d'Aumeries